Worcester, Pennsylvania
Current Conditions -  °F | °C
As of 11:35 AM on Wednesday 26 Nov 2014 (Local Time) from KLOM Reporting Station
Overcast Overcast  
Wind Chill: 30°   Ceiling: 400
Heat Index: 34°   Visibility: 1.2mi
Dew Point: 34°   Wind: 5mph
Humidity: 100%   Direction: 20°NNE
Pressure: 30.01"   Gusts: NA
Location:  40.2°N, 75.35°W
Report Text: KLOM 261635Z AUTO 02004KT 1 1/4SM OVC004 01/01 A3001 RMK AO1 P0003
Loading
Personal Weather Stations






























Interactive Weather Map New forecast layout! Learn more

10-Day Weather Forecast

Advertisements
Track Severe Weather on mobile